Time;durP1;ratioP1;P1;durP2;ratioP2;P2;SDS_P1;SDS_P2;PMS_P1;PMS_P2;Temp;Humidity;BMP_temperature;BMP_pressure;BME280_temperature;BME280_humidity;BME280_pressure;Samples;Min_cycle;Max_cycle;Signal;HPM_P1;HPM_P2
2023/03/02 00:01:52;;;;;;;33.53;22.83;;;;;;;;;;5015760;28;20294;-83
2023/03/02 00:04:22;;;;;;;44.37;26.60;;;;;;;;;;5015440;28;20200;-84
2023/03/02 00:06:51;;;;;;;51.97;29.33;;;;;;;;;;5015719;28;20196;-83
2023/03/02 00:09:20;;;;;;;30.27;22.57;;;;;;;;;;5016300;28;20213;-83
2023/03/02 00:11:48;;;;;;;40.33;23.67;;;;;;;;;;5015543;28;20207;-83
2023/03/02 00:14:17;;;;;;;26.63;16.17;;;;;;;;;;5015928;28;20210;-83
2023/03/02 00:16:46;;;;;;;36.93;22.50;;;;;;;;;;5015498;28;20253;-83
2023/03/02 00:19:15;;;;;;;38.50;21.47;;;;;;;;;;5015323;28;20222;-82
2023/03/02 00:21:43;;;;;;;42.80;28.70;;;;;;;;;;5015372;28;20632;-83
2023/03/02 00:24:14;;;;;;;44.27;27.63;;;;;;;;;;5015126;28;20235;-84
2023/03/02 00:26:43;;;;;;;51.50;32.93;;;;;;;;;;5014895;28;20265;-84
2023/03/02 00:29:11;;;;;;;52.57;32.40;;;;;;;;;;5014772;28;20246;-84
2023/03/02 00:31:39;;;;;;;32.07;18.77;;;;;;;;;;5014896;28;20242;-83
2023/03/02 00:34:09;;;;;;;59.43;27.47;;;;;;;;;;5015028;28;20207;-83
2023/03/02 00:36:37;;;;;;;33.33;24.63;;;;;;;;;;5014811;28;20208;-84
2023/03/02 00:39:06;;;;;;;38.77;26.20;;;;;;;;;;5014933;28;20203;-83
2023/03/02 00:41:34;;;;;;;49.23;23.40;;;;;;;;;;5015190;28;20243;-84
2023/03/02 00:44:03;;;;;;;29.77;20.10;;;;;;;;;;5014878;28;20279;-84
2023/03/02 00:46:31;;;;;;;34.73;22.53;;;;;;;;;;5014666;28;20423;-83
2023/03/02 00:49:00;;;;;;;64.43;40.77;;;;;;;;;;5014735;28;20262;-83
2023/03/02 00:51:29;;;;;;;50.00;27.93;;;;;;;;;;5014816;28;20204;-83
2023/03/02 00:54:01;;;;;;;39.17;26.13;;;;;;;;;;5014295;28;20276;-84
2023/03/02 00:56:30;;;;;;;53.53;31.63;;;;;;;;;;5015033;28;20244;-83
2023/03/02 00:58:59;;;;;;;54.43;33.50;;;;;;;;;;5014343;28;20219;-83
2023/03/02 01:01:27;;;;;;;26.87;16.27;;;;;;;;;;5015115;28;20260;-83
2023/03/02 01:03:55;;;;;;;32.57;21.23;;;;;;;;;;5014995;28;20239;-83
2023/03/02 01:06:24;;;;;;;36.50;25.33;;;;;;;;;;5015312;28;20202;-83
2023/03/02 01:08:53;;;;;;;35.97;22.80;;;;;;;;;;5014801;28;20231;-83
2023/03/02 01:11:23;;;;;;;37.30;25.17;;;;;;;;;;5014615;28;20196;-83
2023/03/02 01:13:51;;;;;;;30.20;22.13;;;;;;;;;;5014491;28;20204;-83
2023/03/02 01:16:19;;;;;;;39.63;25.70;;;;;;;;;;5014811;28;20208;-83
2023/03/02 01:18:48;;;;;;;37.03;24.03;;;;;;;;;;5014292;28;20229;-83
2023/03/02 01:21:16;;;;;;;44.23;29.87;;;;;;;;;;5014596;28;20300;-83
2023/03/02 01:23:45;;;;;;;33.83;20.37;;;;;;;;;;5014287;28;20199;-81
2023/03/02 01:26:15;;;;;;;29.00;19.23;;;;;;;;;;5013915;28;20204;-82
2023/03/02 01:28:43;;;;;;;41.00;26.47;;;;;;;;;;5014424;28;20314;-82
2023/03/02 01:31:11;;;;;;;36.33;21.07;;;;;;;;;;5013854;28;20218;-82
2023/03/02 01:33:40;;;;;;;24.80;16.13;;;;;;;;;;5014138;28;20191;-82
2023/03/02 01:36:09;;;;;;;24.33;15.27;;;;;;;;;;5014532;28;20238;-82
2023/03/02 01:38:37;;;;;;;37.53;26.70;;;;;;;;;;5014220;28;20226;-82
2023/03/02 01:41:05;;;;;;;21.97;15.23;;;;;;;;;;5014345;28;20258;-82
2023/03/02 01:43:35;;;;;;;19.03;14.13;;;;;;;;;;5013980;28;20246;-82
2023/03/02 01:46:05;;;;;;;29.07;18.53;;;;;;;;;;5014908;28;20230;-82
2023/03/02 01:48:34;;;;;;;28.13;22.07;;;;;;;;;;5014222;28;20204;-82
2023/03/02 01:51:03;;;;;;;32.97;21.27;;;;;;;;;;5014500;28;20254;-82
2023/03/02 01:53:33;;;;;;;30.97;20.90;;;;;;;;;;5013562;28;20263;-82
2023/03/02 01:56:02;;;;;;;29.57;20.73;;;;;;;;;;5014476;28;20227;-82
2023/03/02 01:58:32;;;;;;;22.37;14.90;;;;;;;;;;5013720;28;20248;-82
2023/03/02 02:01:02;;;;;;;28.00;18.87;;;;;;;;;;5013760;28;20231;-82
2023/03/02 02:03:31;;;;;;;26.77;17.80;;;;;;;;;;5014024;28;20210;-81
2023/03/02 02:06:02;;;;;;;21.87;16.03;;;;;;;;;;5014104;28;20299;-82
2023/03/02 02:08:31;;;;;;;16.37;13.63;;;;;;;;;;5013874;28;20226;-82
2023/03/02 02:10:59;;;;;;;27.63;16.37;;;;;;;;;;5013648;28;20250;-82
2023/03/02 02:13:28;;;;;;;23.17;19.20;;;;;;;;;;5013853;28;20242;-82
2023/03/02 02:15:56;;;;;;;23.57;18.57;;;;;;;;;;5013757;28;20235;-83
2023/03/02 02:18:26;;;;;;;24.73;16.63;;;;;;;;;;5013471;28;20225;-83
2023/03/02 02:20:55;;;;;;;18.13;13.77;;;;;;;;;;5013213;28;20220;-83
2023/03/02 02:23:27;;;;;;;22.53;15.53;;;;;;;;;;5013680;28;20209;-83
2023/03/02 02:26:07;;;;;;;24.20;17.00;;;;;;;;;;5013735;28;20213;-82
2023/03/02 02:28:38;;;;;;;19.30;15.13;;;;;;;;;;5013794;28;20230;-83
2023/03/02 02:31:08;;;;;;;9.90;6.67;;;;;;;;;;5013993;28;20200;-82
2023/03/02 02:33:37;;;;;;;19.70;14.13;;;;;;;;;;5013092;28;20198;-83
2023/03/02 02:36:08;;;;;;;16.60;13.73;;;;;;;;;;5013223;28;20203;-84
2023/03/02 02:38:37;;;;;;;18.63;13.37;;;;;;;;;;5013596;28;20216;-84
2023/03/02 02:41:09;;;;;;;22.13;16.63;;;;;;;;;;5013293;28;20564;-83
2023/03/02 02:43:37;;;;;;;29.13;20.50;;;;;;;;;;5013629;28;20241;-83
2023/03/02 02:46:06;;;;;;;21.47;14.10;;;;;;;;;;5013734;28;20202;-84
2023/03/02 02:48:35;;;;;;;24.20;17.70;;;;;;;;;;5013864;28;20199;-84
2023/03/02 02:51:03;;;;;;;23.10;14.93;;;;;;;;;;5013868;28;20207;-84
2023/03/02 02:53:35;;;;;;;16.00;12.97;;;;;;;;;;5013052;28;20226;-84
2023/03/02 02:56:07;;;;;;;17.37;12.30;;;;;;;;;;5017425;28;20216;-84
2023/03/02 02:58:40;;;;;;;16.37;12.73;;;;;;;;;;5016723;28;20223;-83
2023/03/02 03:01:08;;;;;;;18.23;13.30;;;;;;;;;;5017082;28;20200;-84
2023/03/02 03:03:38;;;;;;;8.17;6.90;;;;;;;;;;5016833;28;20196;-84
2023/03/02 03:06:07;;;;;;;13.60;8.27;;;;;;;;;;5016988;28;20202;-84
2023/03/02 03:08:51;;;;;;;19.70;11.87;;;;;;;;;;5016656;28;20260;-83
2023/03/02 03:11:23;;;;;;;17.97;13.10;;;;;;;;;;5016819;28;20198;-83
2023/03/02 03:13:54;;;;;;;12.63;8.23;;;;;;;;;;5016424;28;20214;-83
2023/03/02 03:16:24;;;;;;;28.57;19.63;;;;;;;;;;5016827;28;20204;-83
2023/03/02 03:18:53;;;;;;;10.87;8.67;;;;;;;;;;5016550;28;20243;-83
2023/03/02 03:21:22;;;;;;;23.80;16.53;;;;;;;;;;5016395;28;20206;-83
2023/03/02 03:23:50;;;;;;;22.07;16.13;;;;;;;;;;5016385;28;20203;-82
2023/03/02 03:26:19;;;;;;;16.90;12.70;;;;;;;;;;5016735;28;20278;-82
2023/03/02 03:28:47;;;;;;;11.83;9.30;;;;;;;;;;5016290;28;20215;-83
2023/03/02 03:31:17;;;;;;;15.83;14.17;;;;;;;;;;5016890;28;20234;-83
2023/03/02 03:33:46;;;;;;;14.60;9.93;;;;;;;;;;5016584;28;20291;-83
2023/03/02 03:36:14;;;;;;;19.47;12.73;;;;;;;;;;5015794;28;20200;-83
2023/03/02 03:38:42;;;;;;;14.07;9.10;;;;;;;;;;5016676;28;20231;-83
2023/03/02 03:41:11;;;;;;;13.77;10.60;;;;;;;;;;5016235;28;20219;-83
2023/03/02 03:43:40;;;;;;;9.47;7.63;;;;;;;;;;5016712;28;20204;-83
2023/03/02 03:46:08;;;;;;;16.70;8.70;;;;;;;;;;5015956;28;20210;-82
2023/03/02 03:48:38;;;;;;;19.97;14.53;;;;;;;;;;5015992;28;20231;-82
2023/03/02 03:51:07;;;;;;;17.23;13.17;;;;;;;;;;5016235;28;20264;-82
2023/03/02 03:53:35;;;;;;;15.57;12.23;;;;;;;;;;5016032;28;20198;-82
2023/03/02 03:56:04;;;;;;;17.33;10.60;;;;;;;;;;5016710;28;20206;-82
2023/03/02 03:58:33;;;;;;;11.23;8.40;;;;;;;;;;5016277;28;20195;-82
2023/03/02 04:01:02;;;;;;;11.83;7.87;;;;;;;;;;5016230;28;20200;-82
2023/03/02 04:03:30;;;;;;;19.80;12.63;;;;;;;;;;5016292;28;20211;-82
2023/03/02 04:06:00;;;;;;;17.77;15.50;;;;;;;;;;5014919;28;20214;-82
2023/03/02 04:08:28;;;;;;;16.63;12.23;;;;;;;;;;5015515;28;20297;-82
2023/03/02 04:10:57;;;;;;;23.83;16.30;;;;;;;;;;5015366;28;20202;-82
2023/03/02 04:13:25;;;;;;;18.20;14.23;;;;;;;;;;5015796;28;20202;-82
2023/03/02 04:15:54;;;;;;;20.43;15.23;;;;;;;;;;5015252;28;20208;-82
2023/03/02 04:18:22;;;;;;;20.73;14.87;;;;;;;;;;5015460;28;20207;-82
2023/03/02 04:20:50;;;;;;;20.50;15.47;;;;;;;;;;5015053;28;20290;-82
2023/03/02 04:23:20;;;;;;;15.40;13.43;;;;;;;;;;5015726;28;20254;-82
2023/03/02 04:25:49;;;;;;;21.90;12.63;;;;;;;;;;5015466;28;20200;-82
2023/03/02 04:28:17;;;;;;;25.90;16.80;;;;;;;;;;5015848;28;20208;-82
2023/03/02 04:30:45;;;;;;;16.93;14.03;;;;;;;;;;5015637;28;20250;-82
2023/03/02 04:33:14;;;;;;;17.37;12.07;;;;;;;;;;5015292;28;20219;-82
2023/03/02 04:35:42;;;;;;;23.03;17.00;;;;;;;;;;5015365;28;20206;-81
2023/03/02 04:38:11;;;;;;;24.60;17.10;;;;;;;;;;5014912;28;20193;-82
2023/03/02 04:40:41;;;;;;;22.93;15.27;;;;;;;;;;5014941;28;20230;-81
2023/03/02 04:43:09;;;;;;;19.03;13.90;;;;;;;;;;5015187;28;20263;-80
2023/03/02 04:45:37;;;;;;;10.97;9.80;;;;;;;;;;5014472;28;20238;-81
2023/03/02 04:48:06;;;;;;;14.10;10.07;;;;;;;;;;5014728;28;20199;-81
2023/03/02 04:50:35;;;;;;;22.00;15.40;;;;;;;;;;5014858;28;20268;-82
2023/03/02 04:53:04;;;;;;;18.43;14.33;;;;;;;;;;5014626;28;20227;-83
2023/03/02 04:55:32;;;;;;;17.70;13.27;;;;;;;;;;5014610;28;20242;-81
2023/03/02 04:58:02;;;;;;;22.00;17.43;;;;;;;;;;5014669;28;20282;-81
2023/03/02 05:00:33;;;;;;;19.03;13.07;;;;;;;;;;5014482;28;20238;-81
2023/03/02 05:03:01;;;;;;;16.73;12.50;;;;;;;;;;5014460;28;20191;-81
2023/03/02 05:05:30;;;;;;;14.33;11.20;;;;;;;;;;5014902;28;20202;-81
2023/03/02 05:07:59;;;;;;;21.30;14.53;;;;;;;;;;5014794;28;20199;-82
2023/03/02 05:10:28;;;;;;;18.10;11.80;;;;;;;;;;5014381;28;20202;-82
2023/03/02 05:13:01;;;;;;;31.03;22.97;;;;;;;;;;5014383;28;20225;-82
2023/03/02 05:15:32;;;;;;;17.67;12.70;;;;;;;;;;5014356;28;20229;-83
2023/03/02 05:18:01;;;;;;;29.33;18.13;;;;;;;;;;5013575;28;20217;-84
2023/03/02 05:20:30;;;;;;;18.10;13.90;;;;;;;;;;5014045;28;20218;-82
2023/03/02 05:23:00;;;;;;;15.83;11.73;;;;;;;;;;5014648;28;20204;-83
2023/03/02 05:25:29;;;;;;;11.83;10.40;;;;;;;;;;5014171;28;20272;-82
2023/03/02 05:27:57;;;;;;;10.33;8.23;;;;;;;;;;5013997;28;20217;-83
2023/03/02 05:30:26;;;;;;;19.97;11.40;;;;;;;;;;5013849;28;20218;-83
2023/03/02 05:32:56;;;;;;;17.40;11.43;;;;;;;;;;5014807;28;20285;-83
2023/03/02 05:35:24;;;;;;;20.23;15.00;;;;;;;;;;5014513;28;20246;-81
2023/03/02 05:37:53;;;;;;;19.47;15.63;;;;;;;;;;5013829;28;20199;-81
2023/03/02 05:40:22;;;;;;;25.53;17.87;;;;;;;;;;5013986;28;20330;-81
2023/03/02 05:42:51;;;;;;;24.67;15.53;;;;;;;;;;5013961;28;20200;-81
2023/03/02 05:45:21;;;;;;;24.97;17.47;;;;;;;;;;5013861;28;20250;-81
2023/03/02 05:47:50;;;;;;;25.40;15.33;;;;;;;;;;5013946;28;20223;-83
2023/03/02 05:50:20;;;;;;;15.90;10.77;;;;;;;;;;5013662;28;20203;-82
2023/03/02 05:52:49;;;;;;;19.03;11.03;;;;;;;;;;5014266;28;20297;-83
2023/03/02 05:55:18;;;;;;;18.57;14.27;;;;;;;;;;5013985;28;20243;-82
2023/03/02 05:57:48;;;;;;;29.57;17.60;;;;;;;;;;5014546;28;20227;-82
2023/03/02 06:00:17;;;;;;;18.33;13.17;;;;;;;;;;5013944;28;20310;-83
2023/03/02 06:02:46;;;;;;;18.07;11.60;;;;;;;;;;5013849;28;20204;-83
2023/03/02 06:05:20;;;;;;;26.83;17.17;;;;;;;;;;5014423;28;20294;-83
2023/03/02 06:07:52;;;;;;;29.13;22.70;;;;;;;;;;5013623;28;20191;-83
2023/03/02 06:10:23;;;;;;;25.70;18.63;;;;;;;;;;5013796;28;20210;-83
2023/03/02 06:12:55;;;;;;;17.33;13.00;;;;;;;;;;5014002;28;20213;-83
2023/03/02 06:15:33;;;;;;;17.70;12.43;;;;;;;;;;5013945;28;20257;-82
2023/03/02 06:18:05;;;;;;;18.23;11.70;;;;;;;;;;5013883;28;20195;-83
2023/03/02 06:20:37;;;;;;;17.13;13.57;;;;;;;;;;5013941;28;20218;-82
2023/03/02 06:23:10;;;;;;;19.37;10.73;;;;;;;;;;5013926;28;20195;-83
2023/03/02 06:25:46;;;;;;;13.23;9.10;;;;;;;;;;5013768;28;20203;-84
2023/03/02 06:28:18;;;;;;;19.33;14.00;;;;;;;;;;5014386;28;20229;-83
2023/03/02 06:30:51;;;;;;;19.17;12.30;;;;;;;;;;5016712;28;20184;-84
2023/03/02 06:33:22;;;;;;;14.40;12.80;;;;;;;;;;5016880;28;20223;-83
2023/03/02 06:35:50;;;;;;;14.20;11.40;;;;;;;;;;5017346;28;20234;-83
2023/03/02 06:38:20;;;;;;;14.33;9.93;;;;;;;;;;5017355;28;20329;-83
2023/03/02 06:40:49;;;;;;;23.27;16.60;;;;;;;;;;5017481;28;20248;-83
2023/03/02 06:43:18;;;;;;;14.63;10.10;;;;;;;;;;5017393;28;20203;-83
2023/03/02 06:45:46;;;;;;;21.73;14.03;;;;;;;;;;5017548;28;20224;-83
2023/03/02 06:48:15;;;;;;;21.00;14.70;;;;;;;;;;5017331;28;20206;-83
2023/03/02 06:50:43;;;;;;;16.30;10.90;;;;;;;;;;5016960;28;20199;-82
2023/03/02 06:53:13;;;;;;;18.80;13.37;;;;;;;;;;5016782;28;20199;-83
2023/03/02 06:55:43;;;;;;;21.30;15.87;;;;;;;;;;5016530;28;20242;-83
2023/03/02 06:58:12;;;;;;;26.50;16.77;;;;;;;;;;5017068;28;20212;-83
2023/03/02 07:00:40;;;;;;;24.23;16.90;;;;;;;;;;5017101;28;20215;-82
2023/03/02 07:03:10;;;;;;;13.90;11.17;;;;;;;;;;5016770;28;20247;-82
2023/03/02 07:05:39;;;;;;;13.80;8.77;;;;;;;;;;5016590;28;20226;-82
2023/03/02 07:08:07;;;;;;;10.87;7.57;;;;;;;;;;5016486;28;20218;-82
2023/03/02 07:10:37;;;;;;;20.30;14.70;;;;;;;;;;5016549;28;20206;-83
2023/03/02 07:13:07;;;;;;;20.20;14.47;;;;;;;;;;5016470;28;20214;-83
2023/03/02 07:15:39;;;;;;;19.00;13.00;;;;;;;;;;5016557;28;20211;-83
2023/03/02 07:18:07;;;;;;;21.90;17.20;;;;;;;;;;5016651;28;20223;-83
2023/03/02 07:20:37;;;;;;;23.43;17.13;;;;;;;;;;5016718;28;20276;-83
2023/03/02 07:23:05;;;;;;;23.53;14.63;;;;;;;;;;5016442;28;20302;-82
2023/03/02 07:25:36;;;;;;;28.17;20.93;;;;;;;;;;5016217;28;20285;-82
2023/03/02 07:28:09;;;;;;;22.93;13.93;;;;;;;;;;5016668;28;20481;-83
2023/03/02 07:30:40;;;;;;;23.33;14.57;;;;;;;;;;5016411;28;20223;-83
2023/03/02 07:33:09;;;;;;;23.93;15.37;;;;;;;;;;5016919;28;20207;-82
2023/03/02 07:35:37;;;;;;;17.37;12.83;;;;;;;;;;5016923;28;20283;-83
2023/03/02 07:38:06;;;;;;;17.47;11.43;;;;;;;;;;5016646;28;20234;-83
2023/03/02 07:40:36;;;;;;;24.53;16.13;;;;;;;;;;5015540;28;20215;-83
2023/03/02 07:43:05;;;;;;;23.67;16.80;;;;;;;;;;5016566;28;20281;-83
2023/03/02 07:45:35;;;;;;;27.80;17.73;;;;;;;;;;5017273;28;20301;-82
2023/03/02 07:48:03;;;;;;;17.97;14.17;;;;;;;;;;5016376;28;20262;-85
2023/03/02 07:50:32;;;;;;;17.73;12.93;;;;;;;;;;5016557;28;20203;-83
2023/03/02 07:53:00;;;;;;;17.90;11.80;;;;;;;;;;5016783;28;20236;-83
2023/03/02 07:55:29;;;;;;;22.97;16.37;;;;;;;;;;5016711;28;20272;-83
2023/03/02 07:57:57;;;;;;;15.00;11.53;;;;;;;;;;5017159;28;20211;-83
2023/03/02 08:00:26;;;;;;;20.27;15.57;;;;;;;;;;5016575;28;20204;-83
2023/03/02 08:02:56;;;;;;;23.97;14.40;;;;;;;;;;5016060;28;20224;-83
2023/03/02 08:05:24;;;;;;;17.10;13.20;;;;;;;;;;5016186;28;20192;-84
2023/03/02 08:07:53;;;;;;;18.33;12.67;;;;;;;;;;5016888;28;20204;-84
2023/03/02 08:10:21;;;;;;;17.43;12.57;;;;;;;;;;5015940;28;20258;-83
2023/03/02 08:12:50;;;;;;;17.13;12.87;;;;;;;;;;5015668;28;20198;-83
2023/03/02 08:15:18;;;;;;;22.97;16.20;;;;;;;;;;5017078;28;20234;-84
2023/03/02 08:17:50;;;;;;;15.77;11.70;;;;;;;;;;5016480;28;20207;-84
2023/03/02 08:20:22;;;;;;;16.87;12.87;;;;;;;;;;5016214;28;20204;-84
2023/03/02 08:22:53;;;;;;;23.63;17.37;;;;;;;;;;5015613;28;20250;-84
2023/03/02 08:25:22;;;;;;;20.07;14.40;;;;;;;;;;5015784;28;20235;-84
2023/03/02 08:27:50;;;;;;;19.83;13.90;;;;;;;;;;5016059;28;20196;-84
2023/03/02 08:30:21;;;;;;;21.13;12.87;;;;;;;;;;5015359;28;20195;-84
2023/03/02 08:32:52;;;;;;;16.50;11.97;;;;;;;;;;5015416;28;20206;-84
2023/03/02 08:35:21;;;;;;;21.17;16.20;;;;;;;;;;5015326;28;20196;-85
2023/03/02 08:37:51;;;;;;;12.33;9.07;;;;;;;;;;5015210;28;20249;-84
2023/03/02 08:40:20;;;;;;;21.43;16.87;;;;;;;;;;5015205;28;20297;-84
2023/03/02 08:42:55;;;;;;;20.93;13.97;;;;;;;;;;5015269;28;20219;-84
2023/03/02 08:45:24;;;;;;;18.83;14.43;;;;;;;;;;5015429;28;20261;-84
2023/03/02 08:47:55;;;;;;;18.83;12.93;;;;;;;;;;5020568;28;20207;-82
2023/03/02 08:50:26;;;;;;;24.47;16.93;;;;;;;;;;5008131;28;20211;-84
2023/03/02 08:52:56;;;;;;;24.80;17.43;;;;;;;;;;5006332;28;20287;-83
2023/03/02 08:55:25;;;;;;;17.03;10.63;;;;;;;;;;5003354;28;20251;-84
2023/03/02 08:57:54;;;;;;;14.53;11.33;;;;;;;;;;5008880;28;20211;-83
2023/03/02 09:00:23;;;;;;;14.70;10.53;;;;;;;;;;5012255;28;20289;-83
2023/03/02 09:02:52;;;;;;;18.30;12.63;;;;;;;;;;5007233;28;20220;-82
2023/03/02 09:05:20;;;;;;;20.90;15.23;;;;;;;;;;5004666;28;20208;-81
2023/03/02 09:07:49;;;;;;;20.90;15.10;;;;;;;;;;5001833;28;20196;-83
2023/03/02 09:10:19;;;;;;;21.20;14.67;;;;;;;;;;4998584;28;20224;-82
2023/03/02 09:12:47;;;;;;;19.13;12.50;;;;;;;;;;5003289;28;20209;-81
2023/03/02 09:15:18;;;;;;;18.60;11.93;;;;;;;;;;5008345;28;20218;-82
2023/03/02 09:17:47;;;;;;;9.93;8.90;;;;;;;;;;5006862;28;20238;-82
2023/03/02 09:20:15;;;;;;;20.73;13.90;;;;;;;;;;5003855;28;20267;-81
2023/03/02 09:22:47;;;;;;;16.13;11.20;;;;;;;;;;5008585;28;20236;-82
2023/03/02 09:25:16;;;;;;;18.67;13.60;;;;;;;;;;5007841;28;20203;-81
2023/03/02 09:27:47;;;;;;;17.53;12.00;;;;;;;;;;5005196;28;20205;-82
2023/03/02 09:30:16;;;;;;;26.90;16.73;;;;;;;;;;5004184;28;20243;-81
2023/03/02 09:32:44;;;;;;;24.43;14.67;;;;;;;;;;5002880;28;20187;-82
2023/03/02 09:35:13;;;;;;;13.57;11.47;;;;;;;;;;5006019;28;20307;-82
2023/03/02 09:37:43;;;;;;;17.27;11.70;;;;;;;;;;5002922;28;20232;-83
2023/03/02 09:40:17;;;;;;;18.33;11.07;;;;;;;;;;5006202;28;20310;-82
2023/03/02 09:42:55;;;;;;;17.57;12.23;;;;;;;;;;5008148;28;20215;-82
2023/03/02 09:45:33;;;;;;;18.83;13.23;;;;;;;;;;5004966;28;20204;-83
2023/03/02 09:48:06;;;;;;;18.53;14.50;;;;;;;;;;5002813;28;20306;-82
2023/03/02 09:50:35;;;;;;;16.63;12.97;;;;;;;;;;5010861;28;20211;-83
2023/03/02 09:53:10;;;;;;;26.23;14.60;;;;;;;;;;5009477;28;20212;-83
2023/03/02 09:55:39;;;;;;;18.43;12.37;;;;;;;;;;5001520;28;20266;-85
2023/03/02 09:58:15;;;;;;;25.10;17.63;;;;;;;;;;5003413;28;20204;-83
2023/03/02 10:00:44;;;;;;;17.53;12.20;;;;;;;;;;4999440;28;20203;-83
2023/03/02 10:03:16;;;;;;;20.43;14.20;;;;;;;;;;5008308;28;20209;-83
2023/03/02 10:05:46;;;;;;;25.50;15.20;;;;;;;;;;5005850;28;20203;-82
2023/03/02 10:08:16;;;;;;;25.10;16.30;;;;;;;;;;5001367;28;20211;-83
2023/03/02 10:10:45;;;;;;;21.37;15.00;;;;;;;;;;5005438;28;20310;-82
2023/03/02 10:13:20;;;;;;;13.27;10.60;;;;;;;;;;5007779;28;20239;-82
2023/03/02 10:15:55;;;;;;;10.53;8.70;;;;;;;;;;4998950;28;20222;-83
2023/03/02 10:18:24;;;;;;;29.20;14.70;;;;;;;;;;5007794;28;20207;-83
2023/03/02 10:20:55;;;;;;;12.70;9.87;;;;;;;;;;5002502;28;20200;-83
2023/03/02 10:23:31;;;;;;;22.10;15.73;;;;;;;;;;5007506;28;20293;-83
2023/03/02 10:26:04;;;;;;;21.17;14.00;;;;;;;;;;5004067;28;20299;-82
2023/03/02 10:28:39;;;;;;;13.33;11.53;;;;;;;;;;5006632;28;20278;-81
2023/03/02 10:31:10;;;;;;;21.23;15.63;;;;;;;;;;5008888;28;20232;-82
2023/03/02 10:33:40;;;;;;;19.03;14.53;;;;;;;;;;5000616;28;20247;-82
2023/03/02 10:36:18;;;;;;;17.50;10.60;;;;;;;;;;5006989;28;20203;-82
2023/03/02 10:38:48;;;;;;;21.40;16.20;;;;;;;;;;5005202;28;20308;-82
2023/03/02 10:41:21;;;;;;;21.87;15.67;;;;;;;;;;5007112;28;20230;-82
2023/03/02 10:43:52;;;;;;;24.93;15.80;;;;;;;;;;5009148;28;20208;-83
2023/03/02 10:46:21;;;;;;;22.60;13.53;;;;;;;;;;5010938;28;20266;-82
2023/03/02 10:48:50;;;;;;;16.27;12.33;;;;;;;;;;5007440;28;20204;-83
2023/03/02 10:51:22;;;;;;;22.97;16.03;;;;;;;;;;5007104;28;20250;-84
2023/03/02 10:53:51;;;;;;;15.87;10.70;;;;;;;;;;5007043;28;20262;-82
2023/03/02 10:56:21;;;;;;;16.63;12.67;;;;;;;;;;5012999;28;20211;-82
2023/03/02 10:58:51;;;;;;;20.80;13.70;;;;;;;;;;5005492;28;20208;-82
2023/03/02 11:01:21;;;;;;;24.07;16.87;;;;;;;;;;5013026;28;20212;-82
2023/03/02 11:03:56;;;;;;;16.53;12.47;;;;;;;;;;5012913;28;20226;-82
2023/03/02 11:06:25;;;;;;;19.33;13.97;;;;;;;;;;5013826;28;20234;-83
2023/03/02 11:09:00;;;;;;;16.53;12.33;;;;;;;;;;5013378;28;20203;-83
2023/03/02 11:11:29;;;;;;;21.13;15.13;;;;;;;;;;5007275;28;20211;-83
2023/03/02 11:14:09;;;;;;;14.47;9.80;;;;;;;;;;5012928;28;20204;-83
2023/03/02 11:16:37;;;;;;;17.90;12.60;;;;;;;;;;5014289;28;20200;-83
2023/03/02 11:19:08;;;;;;;16.50;12.80;;;;;;;;;;5016089;28;20204;-84
2023/03/02 11:21:39;;;;;;;17.53;12.87;;;;;;;;;;5003373;28;20243;-82
2023/03/02 11:24:10;;;;;;;18.87;11.00;;;;;;;;;;5005473;28;20212;-83
2023/03/02 11:26:39;;;;;;;16.67;12.63;;;;;;;;;;5012616;28;20278;-82
2023/03/02 11:29:13;;;;;;;19.23;12.77;;;;;;;;;;5014118;28;20269;-83
2023/03/02 11:31:46;;;;;;;17.57;11.10;;;;;;;;;;5011604;28;20227;-83
2023/03/02 11:34:25;;;;;;;16.73;12.03;;;;;;;;;;5016747;28;20242;-82
2023/03/02 11:36:59;;;;;;;9.37;7.67;;;;;;;;;;5016725;28;20195;-82
2023/03/02 11:39:30;;;;;;;19.83;16.20;;;;;;;;;;5016621;28;20208;-83
2023/03/02 11:41:59;;;;;;;11.67;10.40;;;;;;;;;;5016502;28;20207;-83
2023/03/02 11:44:29;;;;;;;18.07;12.30;;;;;;;;;;5016456;28;20282;-82
2023/03/02 11:47:00;;;;;;;15.03;9.93;;;;;;;;;;5017447;28;20210;-82
2023/03/02 11:49:36;;;;;;;15.33;10.73;;;;;;;;;;5016831;28;20203;-82
2023/03/02 11:52:05;;;;;;;16.87;12.63;;;;;;;;;;5016263;28;20577;-82
2023/03/02 11:54:36;;;;;;;7.80;7.00;;;;;;;;;;5017131;28;20232;-83
2023/03/02 11:57:05;;;;;;;12.03;9.07;;;;;;;;;;5016115;28;20215;-83
2023/03/02 11:59:35;;;;;;;13.73;10.83;;;;;;;;;;5016477;28;20254;-82
2023/03/02 12:02:04;;;;;;;19.30;11.97;;;;;;;;;;5016126;28;20200;-82
2023/03/02 12:04:34;;;;;;;21.80;11.90;;;;;;;;;;5016305;28;20235;-82
2023/03/02 12:07:04;;;;;;;11.23;7.97;;;;;;;;;;5015846;28;20203;-83
2023/03/02 12:09:34;;;;;;;13.83;9.67;;;;;;;;;;5015751;28;20218;-83
2023/03/02 12:12:24;;;;;;;19.17;12.97;;;;;;;;;;5016145;28;20208;-82
2023/03/02 12:14:54;;;;;;;12.77;9.90;;;;;;;;;;5016479;28;20259;-83
2023/03/02 12:17:31;;;;;;;13.67;9.40;;;;;;;;;;5016222;28;20199;-83
2023/03/02 12:20:10;;;;;;;14.03;11.40;;;;;;;;;;5016009;28;20295;-83
2023/03/02 12:22:41;;;;;;;11.27;8.13;;;;;;;;;;5015601;28;20294;-83
2023/03/02 12:25:25;;;;;;;9.80;7.77;;;;;;;;;;5015334;28;20224;-83
2023/03/02 12:27:54;;;;;;;7.03;5.93;;;;;;;;;;5015448;28;20219;-83
2023/03/02 12:30:30;;;;;;;14.87;11.07;;;;;;;;;;5015642;28;20335;-83
2023/03/02 12:33:01;;;;;;;10.00;8.40;;;;;;;;;;5015815;28;20208;-84
2023/03/02 12:35:31;;;;;;;11.37;7.73;;;;;;;;;;5015458;28;20296;-84
2023/03/02 12:38:00;;;;;;;16.67;11.73;;;;;;;;;;5015370;28;20201;-83
2023/03/02 12:40:33;;;;;;;11.20;9.20;;;;;;;;;;5015394;28;20231;-83
2023/03/02 12:43:20;;;;;;;17.67;10.63;;;;;;;;;;5015487;28;20196;-83
2023/03/02 12:45:57;;;;;;;10.03;7.30;;;;;;;;;;5014995;28;20259;-83
2023/03/02 12:48:30;;;;;;;17.23;11.20;;;;;;;;;;5015919;28;20275;-83
2023/03/02 12:51:00;;;;;;;14.57;11.17;;;;;;;;;;5015450;28;20482;-83
2023/03/02 12:53:32;;;;;;;13.83;9.33;;;;;;;;;;5014622;28;20259;-83
2023/03/02 12:56:01;;;;;;;19.13;12.03;;;;;;;;;;5014634;28;20246;-83
2023/03/02 12:58:32;;;;;;;10.37;8.53;;;;;;;;;;5014593;28;20203;-82
2023/03/02 13:01:28;;;;;;;12.17;8.50;;;;;;;;;;5014969;28;20201;-83
2023/03/02 13:04:21;;;;;;;13.10;10.07;;;;;;;;;;5014658;28;20222;-83
2023/03/02 13:06:51;;;;;;;14.77;10.03;;;;;;;;;;5015337;28;20212;-84
2023/03/02 13:09:23;;;;;;;13.93;9.43;;;;;;;;;;5014900;28;20247;-83
2023/03/02 13:11:53;;;;;;;18.63;12.47;;;;;;;;;;5012576;28;20231;-82
2023/03/02 13:14:30;;;;;;;19.30;10.47;;;;;;;;;;5012262;28;20191;-81
2023/03/02 13:17:30;;;;;;;19.03;14.43;;;;;;;;;;5011940;28;20195;-82
2023/03/02 13:20:22;;;;;;;13.23;9.30;;;;;;;;;;5013257;28;20202;-81
2023/03/02 13:23:16;;;;;;;15.00;10.03;;;;;;;;;;5012836;28;20207;-81
2023/03/02 13:25:54;;;;;;;21.40;15.47;;;;;;;;;;5014210;28;20231;-81
2023/03/02 13:28:27;;;;;;;16.17;6.77;;;;;;;;;;5006070;28;20256;-82
2023/03/02 13:30:59;;;;;;;13.33;8.00;;;;;;;;;;5014535;28;20238;-82
2023/03/02 13:33:29;;;;;;;14.93;9.53;;;;;;;;;;5010443;28;20299;-82
2023/03/02 13:35:57;;;;;;;23.70;15.20;;;;;;;;;;5013508;28;20195;-81
2023/03/02 13:38:31;;;;;;;20.63;12.87;;;;;;;;;;5013317;28;20208;-82
2023/03/02 13:41:00;;;;;;;12.90;9.47;;;;;;;;;;5012524;28;20239;-82
2023/03/02 13:43:37;;;;;;;18.07;10.70;;;;;;;;;;5013532;28;20291;-82
2023/03/02 13:46:25;;;;;;;20.20;11.00;;;;;;;;;;5010881;28;20282;-82
2023/03/02 13:48:54;;;;;;;22.80;14.63;;;;;;;;;;5006894;28;20216;-80
2023/03/02 13:51:38;;;;;;;17.00;10.30;;;;;;;;;;5011525;28;20203;-82
2023/03/02 13:54:13;;;;;;;18.70;12.93;;;;;;;;;;5006640;28;20206;-82
2023/03/02 13:56:42;;;;;;;16.00;8.83;;;;;;;;;;5011727;28;20203;-82
2023/03/02 13:59:13;;;;;;;20.97;12.73;;;;;;;;;;5009036;28;20211;-81
2023/03/02 14:01:42;;;;;;;13.70;9.63;;;;;;;;;;5011221;28;20238;-81
2023/03/02 14:04:12;;;;;;;15.93;11.00;;;;;;;;;;5010879;28;20291;-81
2023/03/02 14:06:40;;;;;;;22.00;15.30;;;;;;;;;;5012394;28;20239;-80
2023/03/02 14:09:10;;;;;;;18.77;12.30;;;;;;;;;;5010544;28;20200;-81
2023/03/02 14:11:40;;;;;;;16.27;11.33;;;;;;;;;;5010396;28;20254;-81
2023/03/02 14:14:12;;;;;;;8.67;7.87;;;;;;;;;;5009242;28;20208;-81
2023/03/02 14:16:40;;;;;;;16.27;10.87;;;;;;;;;;5008874;28;20204;-81
2023/03/02 14:19:10;;;;;;;19.33;12.40;;;;;;;;;;5010476;28;20236;-81
2023/03/02 14:21:38;;;;;;;15.60;10.67;;;;;;;;;;5012280;28;20215;-81
2023/03/02 14:24:07;;;;;;;18.30;12.67;;;;;;;;;;5012113;28;20279;-82
2023/03/02 14:26:39;;;;;;;14.43;9.67;;;;;;;;;;4999400;28;20208;-82
2023/03/02 14:29:15;;;;;;;20.60;13.03;;;;;;;;;;5009569;28;20211;-82
2023/03/02 14:31:43;;;;;;;15.47;10.23;;;;;;;;;;5011702;28;20255;-83
2023/03/02 14:34:13;;;;;;;17.63;10.83;;;;;;;;;;5010740;28;20674;-82
2023/03/02 14:36:42;;;;;;;18.57;12.83;;;;;;;;;;5011960;28;20206;-82
2023/03/02 14:39:18;;;;;;;14.07;9.47;;;;;;;;;;5011135;28;20211;-83